Hovedside
METAR-TAF:

METAR-TAF

Lufthavner :

Rarotonga, Cookøyene

breddegrad: 21-12S, lengdegrad: 159-49W, høyde over havet: 7 m

Gjeldene værobservasjon

Denne rapporten ble laget for 31 minutter siden, klokken 02:30 UTC
Vind 5 kt fra Nord, skiftende mellom Nordvest og Nordøst
Temperatur 26°C
Luftfuktighet 65%
Trykk 1011 hPa
Sikt 10 km eller mer

METAR: NCRG 200230Z AUTO 35005KT 320V040 9999 FEW031/// 26/19 Q1011

Tid: 17:01 (03:01 UTC)

Varsel

Denne rapporten ble laget for 3 timer og 57 minutter siden, klokken 23:04 UTC
Varsel gyldig fra 20. klokken 00 UTC til 20. klokken 24 UTC
Vind 6 kt fra Nord-nordøst
Sikt 10 km eller mer
Spredte skyer i en høyde av 3500 ft

TAF: NCRG 192304Z 2000/2024 02006KT 9999 SCT035

Værobservasjoner og værvarsel for over 4000 flyplasser (METAR- og TAF-rapporter).

Tilgjengelige stasjoner er representert av de røde og gule prikkene på kartet.

Hold musepekeren over prikken for å se navnet på stasjonen.

Klikk så for å se værobservasjoner og -varsler.

For å forandre kartet kan du klikke på den grønne knappen med svart kryss for å zoome inn, på den grønne knappen med strek for å zoome ut, eller på de grønne pilene for å se tilstøtende kart.


METAR-TAF: